createdAt,value
2022-11-26T00:00:06.635Z,5.6
2022-11-26T00:02:06.599Z,5.4
2022-11-26T00:04:06.391Z,5.5
2022-11-26T00:06:06.264Z,5.5
2022-11-26T00:08:06.122Z,5.4
2022-11-26T00:10:06.004Z,5.5
2022-11-26T00:12:09.336Z,5.6
2022-11-26T00:14:09.178Z,5.5
2022-11-26T00:16:08.989Z,5.6
2022-11-26T00:17:16.140Z,5.4
2022-11-26T00:19:10.490Z,5.4
2022-11-26T00:21:10.356Z,5.4
2022-11-26T00:23:10.184Z,5.4
2022-11-26T00:25:13.540Z,5.5
2022-11-26T00:27:13.274Z,5.5
2022-11-26T00:29:13.149Z,5.5
2022-11-26T00:33:12.876Z,5.6
2022-11-26T00:35:12.722Z,5.4
2022-11-26T00:37:12.602Z,5.6
2022-11-26T00:39:15.943Z,5.4
2022-11-26T00:41:15.828Z,5.5
2022-11-26T00:43:15.681Z,5.5
2022-11-26T00:45:15.456Z,5.4
2022-11-26T00:47:15.281Z,5.5
2022-11-26T00:49:15.152Z,5.5
2022-11-26T00:51:15.012Z,5.3
2022-11-26T00:53:24.928Z,5.4
2022-11-26T00:55:19.808Z,5.4
2022-11-26T00:57:19.669Z,5.4
2022-11-26T01:01:19.504Z,5.3
2022-11-26T01:03:19.272Z,5.3
2022-11-26T01:05:19.168Z,5.2
2022-11-26T01:07:22.598Z,5.3
2022-11-26T01:12:23.934Z,4.9
2022-11-26T01:14:23.824Z,5
2022-11-26T01:16:23.795Z,4.8
2022-11-26T01:18:23.585Z,4.8
2022-11-26T01:20:26.927Z,4.7
2022-11-26T01:22:26.753Z,4.8
2022-11-26T01:24:26.626Z,4.8
2022-11-26T01:26:26.508Z,4.8
2022-11-26T01:28:26.411Z,4.6
2022-11-26T01:30:26.233Z,4.6
2022-11-26T01:32:29.470Z,4.6
2022-11-26T01:34:29.473Z,4.6
2022-11-26T01:36:29.339Z,4.7
2022-11-26T01:38:29.236Z,4.5
2022-11-26T01:40:29.070Z,4.6
2022-11-26T01:42:28.952Z,4.6
2022-11-26T01:44:28.911Z,4.6
2022-11-26T01:46:28.688Z,4.7
2022-11-26T01:48:36.060Z,4.6
2022-11-26T01:50:31.918Z,4.6
2022-11-26T01:52:31.731Z,4.6
2022-11-26T01:54:31.587Z,4.6
2022-11-26T01:56:31.483Z,4.5
2022-11-26T01:58:34.418Z,4.5
2022-11-26T02:00:31.204Z,4.5
2022-11-26T02:04:34.540Z,4.5
2022-11-26T02:07:36.142Z,4.3
2022-11-26T02:09:35.920Z,4.4
2022-11-26T02:11:35.824Z,4.3
2022-11-26T02:13:35.694Z,4.3
2022-11-26T02:19:38.816Z,4.4
2022-11-26T02:21:38.681Z,4.4
2022-11-26T02:25:38.621Z,4.5
2022-11-26T02:27:38.366Z,4.5
2022-11-26T02:33:41.467Z,4.4
2022-11-26T02:35:41.366Z,4.4
2022-11-26T02:37:41.267Z,4.5
2022-11-26T02:39:41.146Z,4.6
2022-11-26T02:41:41.036Z,4.5
2022-11-26T02:43:44.385Z,4.5
2022-11-26T02:45:44.336Z,4.5
2022-11-26T02:47:44.139Z,4.7
2022-11-26T02:49:44.017Z,4.7
2022-11-26T02:51:43.876Z,4.5
2022-11-26T02:53:43.734Z,4.5
2022-11-26T02:55:43.623Z,4.5
2022-11-26T02:57:46.996Z,4.4
2022-11-26T02:59:46.873Z,4.6
2022-11-26T03:01:46.745Z,4.5
2022-11-26T03:04:02.632Z,4.4
2022-11-26T03:06:02.387Z,4.4
2022-11-26T03:08:02.325Z,4.4
2022-11-26T03:10:05.688Z,4.3
2022-11-26T03:12:05.588Z,4.4
2022-11-26T03:14:05.410Z,4.5
2022-11-26T03:16:05.406Z,4.4
2022-11-26T03:18:05.187Z,4.5
2022-11-26T03:20:05.080Z,4.5
2022-11-26T03:22:04.973Z,4.5
2022-11-26T03:24:08.369Z,4.2
2022-11-26T03:26:08.209Z,4.4
2022-11-26T03:28:08.082Z,4.3
2022-11-26T03:30:07.962Z,4.5
2022-11-26T03:32:07.920Z,4.4
2022-11-26T03:36:07.579Z,4.6
2022-11-26T03:42:10.773Z,4.2
2022-11-26T03:46:10.579Z,4.4
2022-11-26T03:48:10.403Z,4.3
2022-11-26T03:50:10.249Z,4.4
2022-11-26T03:52:13.687Z,4.4
2022-11-26T03:54:13.531Z,4.4
2022-11-26T03:56:13.426Z,4.4
2022-11-26T03:59:14.985Z,4.4
2022-11-26T04:01:14.916Z,4.3
2022-11-26T04:03:14.780Z,4.3
2022-11-26T04:05:18.158Z,4.2
2022-11-26T04:07:18.051Z,4.2
2022-11-26T04:13:17.669Z,4.4
2022-11-26T04:15:17.556Z,4.2
2022-11-26T04:17:17.453Z,4.3
2022-11-26T04:19:20.847Z,4.3
2022-11-26T04:21:20.738Z,4.4
2022-11-26T04:23:20.596Z,4.3
2022-11-26T04:25:20.472Z,4.4
2022-11-26T04:27:20.357Z,4.3
2022-11-26T04:29:20.275Z,4.4
2022-11-26T04:31:20.156Z,4.2
2022-11-26T04:33:23.543Z,4.2
2022-11-26T04:35:23.393Z,4.3
2022-11-26T04:37:23.255Z,4.3
2022-11-26T04:39:23.147Z,4.1
2022-11-26T04:41:23.042Z,4.4
2022-11-26T04:43:22.915Z,4.4
2022-11-26T04:45:22.804Z,4.4
2022-11-26T04:49:26.055Z,4.6
2022-11-26T04:51:25.954Z,4.5
2022-11-26T04:52:27.655Z,4.6
2022-11-26T04:54:27.538Z,4.6
2022-11-26T04:58:27.326Z,4.7
2022-11-26T05:00:30.688Z,4.7
2022-11-26T05:02:30.580Z,4.7
2022-11-26T05:04:30.439Z,4.7
2022-11-26T05:08:30.213Z,4.6
2022-11-26T05:12:29.983Z,4.8
2022-11-26T05:14:33.321Z,4.8
2022-11-26T05:16:33.222Z,4.7
2022-11-26T05:18:33.088Z,4.7
2022-11-26T05:20:32.992Z,4.5
2022-11-26T05:22:32.849Z,4.6
2022-11-26T05:26:32.602Z,4.6
2022-11-26T05:28:35.955Z,4.7
2022-11-26T05:30:35.839Z,4.9
2022-11-26T05:32:35.726Z,4.9
2022-11-26T05:34:35.729Z,4.8
2022-11-26T05:36:35.480Z,4.9
2022-11-26T05:38:35.363Z,4.7
2022-11-26T05:46:38.375Z,4.4
2022-11-26T05:49:39.940Z,4.3
2022-11-26T05:51:39.807Z,4.2
2022-11-26T05:53:39.667Z,4.2
2022-11-26T05:55:43.081Z,4
2022-11-26T05:57:42.941Z,4
2022-11-26T05:59:42.854Z,3.7
2022-11-26T06:03:42.607Z,3.5
2022-11-26T06:05:42.474Z,3.4
2022-11-26T06:07:45.007Z,3.6
2022-11-26T06:09:45.734Z,3.7
2022-11-26T06:11:45.629Z,3.6
2022-11-26T06:13:45.502Z,3.6
2022-11-26T06:15:45.361Z,3.7
2022-11-26T06:17:45.255Z,3.5
2022-11-26T06:19:45.148Z,3.6
2022-11-26T06:21:45.051Z,3.4
2022-11-26T06:23:54.329Z,3.2
2022-11-26T06:25:48.332Z,3.2
2022-11-26T06:27:48.216Z,3.3
2022-11-26T06:29:48.075Z,3.2
2022-11-26T06:31:47.999Z,3.4
2022-11-26T06:33:47.873Z,3.2
2022-11-26T06:35:47.772Z,3.2
2022-11-26T06:37:51.111Z,3.2
2022-11-26T06:39:52.562Z,3.2
2022-11-26T06:41:52.375Z,3.2
2022-11-26T06:44:14.633Z,3.2
2022-11-26T06:46:14.643Z,3.2
2022-11-26T06:48:14.433Z,3.1
2022-11-26T06:50:17.849Z,3.1
2022-11-26T06:52:17.731Z,3.1
2022-11-26T06:54:17.584Z,3.1
2022-11-26T06:56:19.118Z,3.2
2022-11-26T06:58:17.407Z,3
2022-11-26T07:00:17.309Z,3
2022-11-26T07:02:17.244Z,3
2022-11-26T07:04:20.567Z,3
2022-11-26T07:06:20.604Z,3.2
2022-11-26T07:08:20.341Z,3
2022-11-26T07:10:20.235Z,3.2
2022-11-26T07:12:20.118Z,3.2
2022-11-26T07:14:20.037Z,3.3
2022-11-26T07:18:23.324Z,3.4
2022-11-26T07:20:23.173Z,3.5
2022-11-26T07:22:23.091Z,3.4
2022-11-26T07:32:26.056Z,3.5
2022-11-26T07:37:27.546Z,3.8
2022-11-26T07:39:27.422Z,3.8
2022-11-26T07:41:27.330Z,3.7
2022-11-26T07:43:27.242Z,3.7
2022-11-26T07:45:30.631Z,3.9
2022-11-26T07:47:30.509Z,3.9
2022-11-26T07:49:30.410Z,3.9
2022-11-26T07:59:33.368Z,4.1
2022-11-26T08:05:33.074Z,4.2
2022-11-26T08:07:32.990Z,4.3
2022-11-26T08:09:32.830Z,4.3
2022-11-26T08:11:32.742Z,4.4
2022-11-26T08:13:36.100Z,4.4
2022-11-26T08:15:36.006Z,4.5
2022-11-26T08:17:35.874Z,4.5
2022-11-26T08:19:35.778Z,4.5
2022-11-26T08:21:35.652Z,4.6
2022-11-26T08:23:35.529Z,4.7
2022-11-26T08:25:35.895Z,4.7
2022-11-26T08:29:38.723Z,4.8
2022-11-26T08:31:43.707Z,4.9
2022-11-26T08:32:40.278Z,5
2022-11-26T08:34:40.436Z,5
2022-11-26T08:36:40.025Z,5.1
2022-11-26T08:38:39.922Z,5.3
2022-11-26T08:40:43.316Z,5.3
2022-11-26T08:42:43.210Z,5.4
2022-11-26T08:44:43.089Z,5.5
2022-11-26T08:46:42.988Z,5.6
2022-11-26T08:48:42.832Z,5.7
2022-11-26T08:50:42.732Z,5.9
2022-11-26T08:52:42.647Z,5.9
2022-11-26T08:54:46.368Z,6
2022-11-26T08:56:45.879Z,6.1
2022-11-26T08:58:45.652Z,6.4
2022-11-26T09:00:45.532Z,7
2022-11-26T09:08:48.508Z,7.3
2022-11-26T09:10:48.279Z,7.2
2022-11-26T09:12:48.065Z,7.1
2022-11-26T09:14:47.936Z,6.9
2022-11-26T09:16:47.820Z,6.8
2022-11-26T09:18:47.774Z,6.8
2022-11-26T09:20:47.487Z,6.8
2022-11-26T09:22:50.754Z,6.7
2022-11-26T09:24:50.567Z,6.7
2022-11-26T09:27:52.085Z,6.6
2022-11-26T09:29:51.881Z,6.6
2022-11-26T09:32:21.306Z,6.5
2022-11-26T09:33:51.562Z,6.5
2022-11-26T09:35:54.895Z,6.5
2022-11-26T09:37:54.747Z,6.5
2022-11-26T09:41:54.458Z,6.6
2022-11-26T09:45:54.140Z,6.8
2022-11-26T09:49:57.274Z,7
2022-11-26T09:51:57.120Z,7.1
2022-11-26T09:53:56.952Z,7.2
2022-11-26T09:55:56.829Z,7.3
2022-11-26T09:58:10.086Z,7.3
2022-11-26T09:59:56.524Z,7.4
2022-11-26T10:01:56.396Z,7.4
2022-11-26T10:03:59.602Z,7.5
2022-11-26T10:05:59.423Z,7.5
2022-11-26T10:07:59.272Z,7.6
2022-11-26T10:09:59.027Z,7.6
2022-11-26T10:11:58.770Z,7.7
2022-11-26T10:13:58.561Z,7.7
2022-11-26T10:15:58.475Z,7.7
2022-11-26T10:18:01.662Z,7.8
2022-11-26T10:20:01.415Z,7.9
2022-11-26T10:22:01.125Z,7.9
2022-11-26T10:24:22.821Z,8
2022-11-26T10:30:25.533Z,8.1
2022-11-26T10:32:25.245Z,8.1
2022-11-26T10:34:27.455Z,8.2
2022-11-26T10:36:24.726Z,8.2
2022-11-26T10:38:24.483Z,8.3
2022-11-26T10:40:24.214Z,8.3
2022-11-26T10:42:23.952Z,8.4
2022-11-26T10:44:27.089Z,8.4
2022-11-26T10:46:26.960Z,8.5
2022-11-26T10:48:26.552Z,8.6
2022-11-26T10:50:47.104Z,8.6
2022-11-26T10:52:26.028Z,8.7
2022-11-26T10:54:25.726Z,8.8
2022-11-26T10:56:25.459Z,8.9
2022-11-26T10:58:28.746Z,8.9
2022-11-26T11:00:28.572Z,8.9
2022-11-26T11:02:28.308Z,9
2022-11-26T11:04:27.930Z,9.1
2022-11-26T11:08:27.347Z,9.2
2022-11-26T11:10:27.049Z,9.4
2022-11-26T11:12:30.178Z,9.6
2022-11-26T11:14:29.889Z,9.6
2022-11-26T11:16:29.693Z,9.7
2022-11-26T11:21:30.639Z,9.6
2022-11-26T11:23:52.226Z,9.7
2022-11-26T11:25:33.379Z,9.8
2022-11-26T11:27:33.106Z,9.8
2022-11-26T11:29:32.770Z,9.8
2022-11-26T11:33:32.173Z,10.2
2022-11-26T11:37:31.624Z,10.4
2022-11-26T11:39:34.741Z,10.5
2022-11-26T11:43:34.122Z,10.6
2022-11-26T11:45:33.904Z,10.6
2022-11-26T11:47:33.510Z,10.5
2022-11-26T11:53:35.989Z,10.7
2022-11-26T11:55:35.669Z,10.7
2022-11-26T11:57:35.365Z,10.6
2022-11-26T11:59:35.047Z,10.5
2022-11-26T12:01:34.866Z,10.3
2022-11-26T12:03:34.454Z,10.3
2022-11-26T12:05:34.124Z,10.3
2022-11-26T12:07:37.262Z,10.1
2022-11-26T12:09:36.865Z,10.1
2022-11-26T12:11:36.562Z,10.1
2022-11-26T12:12:38.211Z,10.2
2022-11-26T12:14:37.804Z,10.3
2022-11-26T12:16:37.552Z,10.7
2022-11-26T12:18:37.160Z,12.2
2022-11-26T12:20:40.258Z,14.2
2022-11-26T12:22:39.922Z,14.8
2022-11-26T12:24:41.456Z,15
2022-11-26T12:26:40.765Z,15.3
2022-11-26T12:28:40.452Z,13.9
2022-11-26T12:30:40.071Z,13.1
2022-11-26T12:32:39.730Z,13.3
2022-11-26T12:34:42.798Z,14.5
2022-11-26T12:36:42.463Z,14.7
2022-11-26T12:38:42.100Z,14.4
2022-11-26T12:40:41.715Z,13.5
2022-11-26T12:42:41.341Z,12.5
2022-11-26T12:44:41.315Z,12.5
2022-11-26T12:46:40.555Z,12.6
2022-11-26T12:48:43.616Z,13.1
2022-11-26T12:50:43.251Z,13.2
2022-11-26T12:52:42.880Z,12.7
2022-11-26T12:54:42.591Z,12.7
2022-11-26T12:56:42.141Z,12.1
2022-11-26T12:58:41.758Z,11.9
2022-11-26T13:00:41.452Z,11.8
2022-11-26T13:02:44.513Z,12
2022-11-26T13:06:43.702Z,12.3
2022-11-26T13:07:45.302Z,12.1
2022-11-26T13:09:44.800Z,12
2022-11-26T13:11:44.450Z,11.7
2022-11-26T13:13:44.072Z,11.4
2022-11-26T13:15:47.154Z,11.6
2022-11-26T13:17:46.759Z,11.6
2022-11-26T13:19:46.404Z,11.8
2022-11-26T13:21:46.039Z,12
2022-11-26T13:23:45.672Z,12
2022-11-26T13:25:45.330Z,11.8
2022-11-26T13:27:44.955Z,11.7
2022-11-26T13:29:48.016Z,11.4
2022-11-26T13:31:47.703Z,11.3
2022-11-26T13:33:47.238Z,11.1
2022-11-26T13:35:46.918Z,11.1
2022-11-26T13:37:46.544Z,10.9
2022-11-26T13:39:46.182Z,10.8
2022-11-26T13:41:45.850Z,10.8
2022-11-26T13:45:48.639Z,10.7
2022-11-26T13:47:48.246Z,10.7
2022-11-26T14:01:49.340Z,10.4
2022-11-26T14:08:03.950Z,10.3
2022-11-26T14:14:06.349Z,10.3
2022-11-26T14:16:06.118Z,10.3
2022-11-26T14:18:05.711Z,10.3
2022-11-26T14:20:05.342Z,10.2
2022-11-26T14:22:05.038Z,10.3
2022-11-26T14:24:08.083Z,10.2
2022-11-26T14:26:07.769Z,10.3
2022-11-26T14:28:07.471Z,10.3
2022-11-26T14:30:07.084Z,10.2
2022-11-26T14:32:06.790Z,10.3
2022-11-26T14:34:06.455Z,10.3
2022-11-26T14:36:06.149Z,10.4
2022-11-26T14:38:09.217Z,10.4
2022-11-26T14:40:08.955Z,10.4
2022-11-26T14:42:08.602Z,10.5
2022-11-26T14:44:08.280Z,10.4
2022-11-26T14:46:07.999Z,10.4
2022-11-26T14:48:07.629Z,10.4
2022-11-26T14:50:07.293Z,10.3
2022-11-26T14:52:10.372Z,10.2
2022-11-26T14:54:10.048Z,10.2
2022-11-26T14:56:09.707Z,10.2
2022-11-26T14:57:11.269Z,10.1
2022-11-26T15:01:10.609Z,10
2022-11-26T15:03:10.360Z,9.9
2022-11-26T15:05:13.340Z,9.9
2022-11-26T15:07:13.039Z,9.9
2022-11-26T15:11:15.095Z,9.8
2022-11-26T15:13:12.073Z,9.8
2022-11-26T15:15:11.738Z,9.7
2022-11-26T15:19:14.478Z,9.5
2022-11-26T15:21:14.158Z,9.5
2022-11-26T15:23:18.609Z,9.4
2022-11-26T15:33:15.694Z,9.1
2022-11-26T15:35:15.365Z,9
2022-11-26T15:37:15.086Z,9
2022-11-26T15:39:14.755Z,9
2022-11-26T15:41:14.472Z,8.9
2022-11-26T15:43:14.206Z,8.8
2022-11-26T15:45:13.877Z,8.8
2022-11-26T15:47:16.939Z,8.7
2022-11-26T15:49:16.679Z,8.7
2022-11-26T15:51:16.366Z,8.8
2022-11-26T15:52:17.921Z,8.7
2022-11-26T15:54:17.634Z,8.6
2022-11-26T15:56:17.323Z,8.5
2022-11-26T15:58:17.038Z,8.5
2022-11-26T16:00:20.151Z,8.6
2022-11-26T16:02:19.897Z,8.5
2022-11-26T16:04:19.526Z,8.5
2022-11-26T16:06:19.213Z,8.5
2022-11-26T16:08:18.941Z,8.5
2022-11-26T16:10:18.634Z,8.4
2022-11-26T16:24:20.052Z,8.2
2022-11-26T16:32:22.388Z,8.2
2022-11-26T16:34:22.116Z,8.1
2022-11-26T16:36:21.843Z,8
2022-11-26T16:38:21.661Z,7.9
2022-11-26T16:40:21.350Z,7.9
2022-11-26T16:42:24.529Z,7.9
2022-11-26T16:44:24.215Z,7.9
2022-11-26T16:46:24.119Z,7.8
2022-11-26T16:47:25.491Z,7.7
2022-11-26T16:49:25.168Z,7.7
2022-11-26T16:53:25.188Z,7.6
2022-11-26T16:55:28.397Z,7.6
2022-11-26T16:59:27.906Z,7.5
2022-11-26T17:01:27.655Z,7.5
2022-11-26T17:03:27.628Z,7.5
2022-11-26T17:05:27.129Z,7.6
2022-11-26T17:07:26.872Z,7.5
2022-11-26T17:09:30.042Z,7.4
2022-11-26T17:11:29.783Z,7.5
2022-11-26T17:13:29.616Z,7.4
2022-11-26T17:15:29.321Z,7.4
2022-11-26T17:17:28.992Z,7.4
2022-11-26T17:19:28.722Z,7.4
2022-11-26T17:21:28.448Z,7.5
2022-11-26T17:23:31.665Z,7.5
2022-11-26T17:25:31.410Z,7.5
2022-11-26T17:27:31.132Z,7.4
2022-11-26T17:29:30.871Z,7.4
2022-11-26T17:31:30.799Z,7.4
2022-11-26T17:33:30.492Z,7.3
2022-11-26T17:35:30.193Z,7.2
2022-11-26T17:37:33.307Z,7.2
2022-11-26T17:39:33.117Z,7.2
2022-11-26T17:41:32.820Z,7.3
2022-11-26T17:43:54.589Z,7.2
2022-11-26T17:45:54.395Z,7.1
2022-11-26T17:47:54.032Z,7.1
2022-11-26T17:49:57.181Z,7
2022-11-26T17:51:56.908Z,7
2022-11-26T17:55:56.462Z,7.1
2022-11-26T17:57:56.220Z,6.9
2022-11-26T17:59:56.048Z,6.9
2022-11-26T18:01:55.944Z,6.9
2022-11-26T18:03:59.220Z,6.7
2022-11-26T18:05:53.396Z,6.8
2022-11-26T18:07:53.287Z,6.8
2022-11-26T18:09:54.651Z,6.9
2022-11-26T18:11:54.248Z,6.9
2022-11-26T18:13:54.026Z,6.8
2022-11-26T18:15:53.823Z,6.9
2022-11-26T18:17:57.101Z,6.9
2022-11-26T18:19:56.936Z,6.8
2022-11-26T18:21:56.650Z,6.7
2022-11-26T18:23:56.401Z,6.6
2022-11-26T18:25:56.136Z,6.6
2022-11-26T18:27:55.877Z,6.6
2022-11-26T18:29:55.746Z,6.7
2022-11-26T18:35:58.620Z,6.7
2022-11-26T18:37:00.308Z,6.7
2022-11-26T18:39:00.120Z,6.6
2022-11-26T18:40:59.855Z,6.6
2022-11-26T18:42:59.701Z,6.6
2022-11-26T18:45:02.935Z,6.7
2022-11-26T18:47:08.060Z,6.8
2022-11-26T18:49:02.506Z,6.8
2022-11-26T18:51:02.339Z,6.7
2022-11-26T18:53:02.167Z,6.6
2022-11-26T18:55:01.921Z,6.7
2022-11-26T18:57:01.752Z,6.7
2022-11-26T18:59:04.967Z,6.7
2022-11-26T19:01:04.815Z,6.7
2022-11-26T19:03:04.550Z,6.7
2022-11-26T19:05:04.392Z,6.9
2022-11-26T19:07:04.263Z,6.7
2022-11-26T19:09:04.113Z,6.8
2022-11-26T19:11:03.925Z,6.9
2022-11-26T19:13:07.254Z,6.8
2022-11-26T19:15:07.079Z,6.7
2022-11-26T19:17:06.857Z,6.7
2022-11-26T19:19:06.676Z,6.8
2022-11-26T19:21:06.480Z,6.7
2022-11-26T19:23:07.047Z,6.8
2022-11-26T19:29:09.021Z,6.7
2022-11-26T19:32:10.507Z,6.7
2022-11-26T19:34:10.217Z,6.7
2022-11-26T19:36:09.980Z,6.6
2022-11-26T19:38:09.735Z,6.4
2022-11-26T19:40:12.960Z,6.7
2022-11-26T19:42:12.774Z,6.6
2022-11-26T19:44:12.551Z,6.6
2022-11-26T19:46:12.489Z,6.5
2022-11-26T19:48:12.242Z,6.4
2022-11-26T19:52:11.918Z,6.5
2022-11-26T19:58:14.829Z,6.5
2022-11-26T20:02:14.589Z,6.5
2022-11-26T20:06:14.209Z,6.5
2022-11-26T20:08:17.525Z,6.6
2022-11-26T20:12:17.215Z,6.6
2022-11-26T20:14:17.075Z,6.6
2022-11-26T20:16:16.949Z,6.6
2022-11-26T20:18:16.707Z,6.6
2022-11-26T20:20:16.475Z,6.6
2022-11-26T20:22:19.785Z,6.8
2022-11-26T20:24:19.518Z,6.7
2022-11-26T20:26:19.416Z,6.8
2022-11-26T20:27:20.967Z,6.8
2022-11-26T20:29:20.794Z,6.9
2022-11-26T20:31:23.604Z,6.9
2022-11-26T20:33:20.362Z,6.8
2022-11-26T20:35:23.650Z,6.9
2022-11-26T20:37:23.453Z,6.9
2022-11-26T20:39:23.178Z,7
2022-11-26T20:41:22.920Z,6.9
2022-11-26T20:43:22.673Z,7
2022-11-26T20:45:22.405Z,7.1
2022-11-26T20:47:22.229Z,7
2022-11-26T20:49:29.561Z,7
2022-11-26T20:51:25.245Z,7
2022-11-26T20:53:25.022Z,7.1
2022-11-26T20:57:24.627Z,7.1
2022-11-26T20:59:24.434Z,7.1
2022-11-26T21:01:24.264Z,7.2
2022-11-26T21:03:27.423Z,7.2
2022-11-26T21:05:27.158Z,7.1
2022-11-26T21:11:26.458Z,7.1
2022-11-26T21:13:26.198Z,7.1
2022-11-26T21:15:26.001Z,7.1
2022-11-26T21:23:50.922Z,7
2022-11-26T21:25:50.758Z,7.1
2022-11-26T21:27:55.462Z,7
2022-11-26T21:29:53.544Z,7
2022-11-26T21:31:53.265Z,6.9
2022-11-26T21:33:53.018Z,6.9
2022-11-26T21:35:52.881Z,7
2022-11-26T21:37:52.480Z,7
2022-11-26T21:39:52.222Z,6.9
2022-11-26T21:41:52.062Z,6.9
2022-11-26T21:43:55.425Z,6.8
2022-11-26T21:45:55.281Z,6.8
2022-11-26T21:47:55.032Z,6.8
2022-11-26T21:49:54.771Z,6.7
2022-11-26T21:51:54.520Z,6.7
2022-11-26T21:53:54.248Z,6.7
2022-11-26T21:55:54.117Z,6.6
2022-11-26T21:57:57.328Z,6.6
2022-11-26T21:59:57.026Z,6.5
2022-11-26T22:01:56.843Z,6.6
2022-11-26T22:03:56.598Z,6.6
2022-11-26T22:05:56.363Z,6.6
2022-11-26T22:07:56.263Z,6.4
2022-11-26T22:09:55.926Z,6.5
2022-11-26T22:11:59.252Z,6.4
2022-11-26T22:15:59.014Z,6.4
2022-11-26T22:17:00.610Z,6.3
2022-11-26T22:19:00.465Z,6.4
2022-11-26T22:21:00.280Z,6.4
2022-11-26T22:23:00.047Z,6.4
2022-11-26T22:25:03.376Z,6.4
2022-11-26T22:27:03.154Z,6.3
2022-11-26T22:29:02.962Z,6.2
2022-11-26T22:31:02.887Z,6.2
2022-11-26T22:33:02.655Z,6.2
2022-11-26T22:35:02.499Z,6.1
2022-11-26T22:37:02.363Z,6
2022-11-26T22:39:05.681Z,5.9
2022-11-26T22:41:05.521Z,5.9
2022-11-26T22:43:05.282Z,5.9
2022-11-26T22:45:05.126Z,5.8
2022-11-26T22:47:04.999Z,5.8
2022-11-26T22:49:04.824Z,5.8
2022-11-26T22:51:04.672Z,5.9
2022-11-26T22:53:07.929Z,5.9
2022-11-26T22:59:07.469Z,5.9
2022-11-26T23:01:07.315Z,5.9
2022-11-26T23:03:07.167Z,5.9
2022-11-26T23:05:06.901Z,5.9
2022-11-26T23:07:10.318Z,5.7
2022-11-26T23:09:10.130Z,5.8
2022-11-26T23:12:11.653Z,5.7
2022-11-26T23:14:11.506Z,5.9
2022-11-26T23:16:11.391Z,5.8
2022-11-26T23:18:11.195Z,5.7
2022-11-26T23:20:14.561Z,5.7
2022-11-26T23:22:14.401Z,5.7
2022-11-26T23:24:14.266Z,5.6
2022-11-26T23:26:14.103Z,5.5
2022-11-26T23:28:13.950Z,5.5
2022-11-26T23:30:13.807Z,5.5
2022-11-26T23:32:13.657Z,5.4
2022-11-26T23:34:16.794Z,5.3
2022-11-26T23:36:16.551Z,5.3
2022-11-26T23:38:16.418Z,5.3
2022-11-26T23:40:16.264Z,5.2
2022-11-26T23:42:16.138Z,5.3
2022-11-26T23:44:15.969Z,5.3
2022-11-26T23:46:15.920Z,5.4
2022-11-26T23:48:19.180Z,5.3
2022-11-26T23:50:19.033Z,5.2
2022-11-26T23:52:18.869Z,5.3
2022-11-26T23:54:18.750Z,5.2
2022-11-26T23:56:20.107Z,5.2
